Time;durP1;ratioP1;P1;durP2;ratioP2;P2;SDS_P1;SDS_P2;PMS_P1;PMS_P2;Temp;Humidity;BMP_temperature;BMP_pressure;BME280_temperature;BME280_humidity;BME280_pressure;Samples;Min_cycle;Max_cycle;Signal;HPM_P1;HPM_P2
2021/03/22 00:00:47;;;;;;;0.22;0.22;;;;;;;2.45;77.67;92202.97;5071347;28;20449;-48
2021/03/22 00:03:14;;;;;;;0.20;0.20;;;;;;;2.43;77.65;92210.91;5071209;28;20118;-47
2021/03/22 00:05:40;;;;;;;0.20;0.20;;;;;;;2.36;77.94;92195.94;5070764;28;20516;-46
2021/03/22 00:08:06;;;;;;;0.20;0.20;;;;;;;2.38;78.42;92203.59;5070575;28;20024;-46
2021/03/22 00:10:33;;;;;;;0.35;0.35;;;;;;;2.42;77.36;92210.19;5070548;28;20103;-46
2021/03/22 00:12:59;;;;;;;0.20;0.20;;;;;;;2.38;77.37;92206.31;5070718;28;20105;-46
2021/03/22 00:15:25;;;;;;;0.20;0.20;;;;;;;2.08;76.71;92176.72;5070410;28;20020;-46
2021/03/22 00:17:51;;;;;;;0.20;0.20;;;;;;;2.19;77.31;92190.09;5070484;28;20551;-47
2021/03/22 00:20:18;;;;;;;0.20;0.20;;;;;;;2.21;77.11;92193.03;5070561;28;20029;-46
2021/03/22 00:22:44;;;;;;;0.20;0.20;;;;;;;2.16;76.52;92178.28;5070514;28;20086;-44
2021/03/22 00:25:10;;;;;;;0.20;0.20;;;;;;;2.03;76.43;92177.56;5069602;28;20505;-44
2021/03/22 00:27:36;;;;;;;4.35;3.95;;;;;;;2.14;76.38;92190.97;5048740;28;20094;-46
2021/03/22 00:30:04;;;;;;;0.40;0.40;;;;;;;2.10;76.54;92190.56;5050875;28;20021;-47
2021/03/22 00:32:29;;;;;;;0.20;0.20;;;;;;;2.09;77.17;92180.91;5051024;28;20100;-47
2021/03/22 00:34:55;;;;;;;1.27;1.13;;;;;;;1.92;76.62;92154.03;5050677;28;20032;-48
2021/03/22 00:37:20;;;;;;;0.43;0.43;;;;;;;1.86;76.60;92147.22;5052918;28;20024;-47
2021/03/22 00:39:46;;;;;;;0.20;0.20;;;;;;;1.99;76.16;92166.25;5070646;28;20027;-46
2021/03/22 00:42:12;;;;;;;0.20;0.20;;;;;;;1.92;76.39;92158.72;5070804;28;20017;-45
2021/03/22 00:44:37;;;;;;;0.20;0.20;;;;;;;2.10;76.80;92168.78;5070605;28;20025;-45
2021/03/22 00:47:03;;;;;;;0.38;0.38;;;;;;;2.06;76.95;92171.78;5070522;28;20025;-48
2021/03/22 00:49:28;;;;;;;0.30;0.30;;;;;;;1.93;76.54;92155.47;5070744;28;20108;-46
2021/03/22 00:51:54;;;;;;;0.30;0.30;;;;;;;2.04;76.51;92162.69;5070488;28;20024;-45
2021/03/22 00:54:19;;;;;;;1.10;1.10;;;;;;;1.98;76.17;92159.34;5070624;28;20016;-45
2021/03/22 00:56:45;;;;;;;0.20;0.20;;;;;;;1.92;76.45;92156.00;5070538;28;20032;-46
2021/03/22 00:59:10;;;;;;;0.20;0.20;;;;;;;1.94;76.75;92167.84;5070476;28;20020;-45
2021/03/22 01:01:36;;;;;;;1.30;1.20;;;;;;;1.97;76.36;92163.34;5070440;28;20086;-47
2021/03/22 01:04:02;;;;;;;0.20;0.20;;;;;;;2.09;76.17;92178.91;5069886;28;20052;-46
2021/03/22 01:06:27;;;;;;;0.20;0.20;;;;;;;2.03;75.91;92191.19;5070457;28;20584;-46
2021/03/22 01:08:53;;;;;;;0.30;0.30;;;;;;;1.94;76.23;92186.16;5069161;28;20052;-46
2021/03/22 01:11:20;;;;;;;0.28;0.28;;;;;;;1.90;75.97;92177.56;5070454;28;20489;-45
2021/03/22 01:13:52;;;;;;;1.65;1.55;;;;;;;1.87;75.59;92165.72;5070470;28;20081;-46
2021/03/22 01:16:32;;;;;;;0.20;0.20;;;;;;;1.84;75.23;92172.22;5052560;28;20033;-46
2021/03/22 01:18:58;;;;;;;0.20;0.20;;;;;;;1.83;76.12;92178.94;5070389;28;20039;-45
2021/03/22 01:21:31;;;;;;;1.55;0.95;;;;;;;1.72;76.38;92175.66;5069024;28;20060;-46
2021/03/22 01:23:57;;;;;;;0.30;0.30;;;;;;;1.77;76.38;92158.53;5069014;28;20021;-45
2021/03/22 01:26:27;;;;;;;0.68;0.68;;;;;;;1.82;75.33;92144.09;5070008;28;20484;-45
2021/03/22 01:28:53;;;;;;;0.57;0.57;;;;;;;1.71;75.92;92144.28;5070191;28;20028;-46
2021/03/22 01:31:19;;;;;;;0.82;0.63;;;;;;;1.63;76.37;92136.00;5052299;28;20024;-43
2021/03/22 01:33:45;;;;;;;1.05;1.05;;;;;;;1.58;76.23;92125.25;5070056;28;20017;-44
2021/03/22 01:36:25;;;;;;;1.17;1.17;;;;;;;1.55;76.91;92121.59;5070334;28;20021;-43
2021/03/22 01:38:53;;;;;;;0.50;0.35;;;;;;;1.47;77.51;92118.75;5052255;28;20024;-44
2021/03/22 01:41:40;;;;;;;0.25;0.25;;;;;;;1.52;77.29;92123.34;5052574;28;20047;-45
2021/03/22 01:44:24;;;;;;;0.20;0.20;;;;;;;1.45;77.35;92118.53;5052111;28;20024;-44
2021/03/22 01:46:54;;;;;;;0.85;0.85;;;;;;;1.51;77.18;92129.31;5069860;28;20024;-44
2021/03/22 01:49:21;;;;;;;0.82;0.82;;;;;;;1.28;77.81;92101.06;5070034;28;20020;-43
2021/03/22 01:51:47;;;;;;;0.20;0.20;;;;;;;1.41;77.51;92111.94;5052237;28;20498;-43
2021/03/22 01:54:12;;;;;;;0.20;0.20;;;;;;;1.48;77.43;92109.34;5052053;28;20024;-44
2021/03/22 01:56:51;;;;;;;0.20;0.20;;;;;;;1.42;77.44;92103.28;5052266;28;20039;-48
2021/03/22 01:59:26;;;;;;;0.43;0.43;;;;;;;1.46;77.20;92103.69;5069725;28;20584;-47
2021/03/22 02:01:53;;;;;;;0.20;0.20;;;;;;;1.39;77.50;92100.84;5052213;28;20017;-47
2021/03/22 02:04:20;;;;;;;0.25;0.25;;;;;;;1.38;76.87;92091.97;5051986;28;20572;-47
2021/03/22 02:06:46;;;;;;;0.25;0.25;;;;;;;1.38;76.77;92088.53;5069692;28;20024;-49
2021/03/22 02:09:12;;;;;;;0.20;0.20;;;;;;;1.29;77.01;92097.09;5069815;28;20029;-46
2021/03/22 02:11:39;;;;;;;0.20;0.20;;;;;;;1.42;76.83;92106.00;5069838;28;20027;-45
2021/03/22 02:14:06;;;;;;;0.55;0.55;;;;;;;1.42;76.98;92092.41;5069812;28;20048;-46
2021/03/22 02:16:50;;;;;;;0.70;0.70;;;;;;;1.46;76.58;92100.97;5073353;28;20581;-48
2021/03/22 02:19:43;;;;;;;0.95;0.95;;;;;;;1.45;76.63;92093.34;5073352;28;20021;-45
2021/03/22 02:22:32;;;;;;;0.85;0.85;;;;;;;1.36;76.60;92093.75;5073163;28;20028;-46
2021/03/22 02:25:22;;;;;;;0.20;0.20;;;;;;;1.34;76.73;92090.81;5073085;28;20028;-47
2021/03/22 02:27:55;;;;;;;1.05;0.57;;;;;;;1.33;76.21;92087.38;5072008;28;20094;-47
2021/03/22 02:30:57;;;;;;;0.20;0.20;;;;;;;1.42;76.30;92081.53;5073199;28;20048;-47
2021/03/22 02:33:41;;;;;;;0.20;0.20;;;;;;;1.34;76.88;92088.81;5073397;28;20043;-46
2021/03/22 02:36:10;;;;;;;0.20;0.20;;;;;;;1.20;77.05;92075.75;5073041;28;20032;-46
2021/03/22 02:38:38;;;;;;;0.20;0.20;;;;;;;1.17;76.95;92077.53;5073024;28;20103;-46
2021/03/22 02:41:15;;;;;;;0.20;0.20;;;;;;;1.02;77.69;92046.69;5054897;28;20588;-46
2021/03/22 02:43:40;;;;;;;0.20;0.20;;;;;;;1.32;77.58;92080.47;5055115;28;20508;-48
2021/03/22 02:46:06;;;;;;;0.20;0.20;;;;;;;1.41;77.48;92082.75;5072327;28;20025;-48
2021/03/22 02:48:33;;;;;;;0.20;0.20;;;;;;;1.27;76.49;92065.00;5071784;28;20111;-48
2021/03/22 02:51:24;;;;;;;0.20;0.20;;;;;;;1.17;76.95;92068.66;5072839;28;20123;-48
2021/03/22 02:53:58;;;;;;;0.20;0.20;;;;;;;1.23;77.85;92070.03;5054845;28;20032;-47
2021/03/22 02:56:51;;;;;;;0.20;0.20;;;;;;;1.14;77.47;92075.13;5051439;28;20032;-47
2021/03/22 02:59:26;;;;;;;0.20;0.20;;;;;;;1.20;78.10;92075.75;5052703;28;20028;-47
2021/03/22 03:01:59;;;;;;;0.20;0.20;;;;;;;1.26;77.54;92090.72;5034728;28;20029;-50
2021/03/22 03:04:24;;;;;;;0.20;0.20;;;;;;;1.27;77.04;92088.72;5034859;28;20087;-46
2021/03/22 03:06:52;;;;;;;0.20;0.20;;;;;;;1.28;77.49;92096.34;5065843;28;20050;-46
2021/03/22 03:09:20;;;;;;;0.20;0.20;;;;;;;1.30;77.27;92095.84;5072533;28;20024;-48
2021/03/22 03:11:46;;;;;;;0.20;0.20;;;;;;;1.33;77.00;92098.25;5072210;28;20036;-51
2021/03/22 03:14:12;;;;;;;0.60;0.50;;;;;;;1.25;76.79;92083.81;5072317;28;20041;-48
2021/03/22 03:16:37;;;;;;;2.30;1.85;;;;;;;1.28;76.57;92055.56;5072218;28;20607;-48
2021/03/22 03:19:03;;;;;;;0.20;0.20;;;;;;;1.14;76.78;92058.81;5072229;28;20039;-47
2021/03/22 03:21:29;;;;;;;3.45;3.05;;;;;;;1.16;76.94;92067.91;5072130;28;20505;-48
2021/03/22 03:23:54;;;;;;;0.40;0.40;;;;;;;1.04;77.82;92074.06;5054258;28;20113;-44
2021/03/22 03:26:20;;;;;;;0.30;0.30;;;;;;;1.04;78.52;92076.78;5071428;28;20587;-43
2021/03/22 03:28:45;;;;;;;0.20;0.20;;;;;;;1.11;78.13;92066.03;5071855;28;20031;-44
2021/03/22 03:31:11;;;;;;;1.00;1.00;;;;;;;1.23;77.14;92058.41;5071669;28;20506;-45
2021/03/22 03:33:36;;;;;;;0.32;0.32;;;;;;;1.30;76.69;92044.19;5071960;28;20032;-43
2021/03/22 03:36:02;;;;;;;0.20;0.20;;;;;;;1.21;77.20;92037.16;5071868;28;20032;-43
2021/03/22 03:38:28;;;;;;;0.20;0.20;;;;;;;1.22;77.35;92038.63;5071807;28;20020;-44
2021/03/22 03:40:53;;;;;;;0.50;0.50;;;;;;;1.15;76.43;92025.66;5071732;28;20107;-44
2021/03/22 03:59:31;;;;;;;0.63;0.63;;;;;;;1.98;73.86;92026.72;5064130;28;20413;-48
2021/03/22 04:01:56;;;;;;;0.50;0.50;;;;;;;1.79;72.68;92017.97;5064435;28;20785;-43
2021/03/22 04:04:22;;;;;;;0.50;0.50;;;;;;;1.73;73.00;92020.09;5064547;28;20039;-43
2021/03/22 04:06:48;;;;;;;0.90;0.90;;;;;;;1.66;73.12;92022.69;5063106;28;20032;-44
2021/03/22 04:09:14;;;;;;;0.30;0.30;;;;;;;1.41;73.96;92027.63;5064583;28;20028;-43
2021/03/22 04:11:44;;;;;;;1.55;1.45;;;;;;;1.23;74.78;92042.09;5064347;28;20107;-44
2021/03/22 04:14:19;;;;;;;0.45;0.45;;;;;;;1.32;75.70;92039.66;5064208;28;20035;-45
2021/03/22 04:16:45;;;;;;;0.30;0.30;;;;;;;1.34;75.05;92042.59;5064359;28;20029;-45
2021/03/22 04:19:10;;;;;;;0.30;0.30;;;;;;;1.39;74.68;92043.75;5064047;28;20081;-45
2021/03/22 04:21:36;;;;;;;0.30;0.30;;;;;;;1.36;74.02;92044.81;5064095;27;20024;-47
2021/03/22 04:24:03;;;;;;;0.25;0.25;;;;;;;1.43;74.98;92036.75;5064105;28;20031;-44
2021/03/22 04:26:29;;;;;;;0.30;0.30;;;;;;;1.29;74.96;92035.28;5063983;28;20059;-44
2021/03/22 04:28:54;;;;;;;0.43;0.43;;;;;;;1.37;74.66;92027.97;5063911;28;20039;-44
2021/03/22 04:31:23;;;;;;;0.82;0.82;;;;;;;1.40;73.84;92029.66;5063553;27;20111;-42
2021/03/22 04:33:50;;;;;;;0.47;0.47;;;;;;;1.21;75.45;92037.16;5064002;28;20029;-43
2021/03/22 04:36:15;;;;;;;2.38;2.20;;;;;;;1.20;75.83;92033.00;5063871;28;20511;-44
2021/03/22 04:38:41;;;;;;;1.60;1.58;;;;;;;1.30;75.50;92031.31;5063774;28;20049;-44
2021/03/22 04:41:07;;;;;;;3.13;1.27;;;;;;;1.14;75.25;92029.66;5063859;28;20036;-45
2021/03/22 04:43:33;;;;;;;0.35;0.35;;;;;;;1.03;75.89;92021.69;5063849;28;20036;-45
2021/03/22 04:45:59;;;;;;;1.02;1.02;;;;;;;1.13;76.17;92032.88;5062856;28;20028;-47
2021/03/22 04:48:24;;;;;;;0.40;0.40;;;;;;;1.14;75.80;92026.94;5063273;28;20031;-49
2021/03/22 04:50:50;;;;;;;0.43;0.43;;;;;;;1.08;75.55;92028.28;5063851;28;20033;-44
2021/03/22 04:53:16;;;;;;;0.77;0.77;;;;;;;1.03;75.46;92029.84;5063597;28;20029;-44
2021/03/22 04:55:42;;;;;;;0.20;0.20;;;;;;;1.13;76.15;92033.63;5063704;28;20035;-45
2021/03/22 04:58:07;;;;;;;0.20;0.20;;;;;;;1.13;75.26;92024.72;5063367;28;20440;-44
2021/03/22 05:00:39;;;;;;;0.73;0.73;;;;;;;1.19;75.65;92031.50;5039603;28;20028;-43
2021/03/22 05:03:05;;;;;;;0.22;0.22;;;;;;;1.13;75.45;92030.16;5040676;28;20029;-44
2021/03/22 05:05:31;;;;;;;0.32;0.32;;;;;;;1.18;74.81;92026.63;5039264;28;20032;-46
2021/03/22 05:07:56;;;;;;;0.40;0.40;;;;;;;1.16;74.96;92018.25;5039281;28;20103;-47
2021/03/22 05:10:25;;;;;;;0.30;0.30;;;;;;;1.17;75.18;92034.03;5040595;28;20136;-44
2021/03/22 05:12:51;;;;;;;;;;;;;;;1.26;74.95;92035.59;5041029;28;20028;-44
2021/03/22 05:15:17;;;;;;;0.30;0.30;;;;;;;1.21;74.69;92028.28;5039584;28;20406;-46
2021/03/22 05:17:42;;;;;;;0.80;0.80;;;;;;;1.23;75.06;92023.81;5038612;28;20032;-44
2021/03/22 05:20:20;;;;;;;1.20;1.20;;;;;;;1.30;74.96;92025.88;5043300;28;20029;-44
2021/03/22 05:22:46;;;;;;;0.30;0.30;;;;;;;1.24;75.58;92036.13;5040191;28;20508;-45
2021/03/22 05:25:11;;;;;;;1.27;1.17;;;;;;;1.21;75.35;92034.44;5038615;28;20041;-45
2021/03/22 05:27:37;;;;;;;0.45;0.45;;;;;;;1.26;75.45;92022.75;5037774;28;20045;-44
2021/03/22 05:30:07;;;;;;;0.40;0.40;;;;;;;1.24;75.72;92027.22;5040075;28;20489;-44
2021/03/22 05:32:35;;;;;;;0.20;0.20;;;;;;;1.21;76.03;92029.00;5038877;28;20450;-45
2021/03/22 05:35:00;;;;;;;8.85;0.85;;;;;;;1.24;76.17;92030.69;5041186;28;20098;-46
2021/03/22 05:37:27;;;;;;;0.32;0.32;;;;;;;1.25;76.57;92031.44;5035345;28;20459;-44
2021/03/22 05:39:52;;;;;;;0.57;0.57;;;;;;;1.30;75.68;92025.88;5028360;28;20736;-42
2021/03/22 05:42:29;;;;;;;0.30;0.30;;;;;;;1.28;76.52;92036.53;5042883;28;20033;-46
2021/03/22 05:44:58;;;;;;;0.30;0.30;;;;;;;1.32;76.36;92036.97;5044931;28;20025;-46
2021/03/22 05:47:26;;;;;;;0.30;0.30;;;;;;;1.34;76.60;92022.84;5047972;28;20465;-46
2021/03/22 05:50:18;;;;;;;0.47;0.47;;;;;;;1.44;76.75;92027.34;5047493;28;20759;-48
2021/03/22 05:53:04;;;;;;;0.38;0.38;;;;;;;1.42;76.33;92024.41;5047637;28;20029;-49
2021/03/22 05:55:32;;;;;;;0.32;0.32;;;;;;;1.48;75.58;92027.75;5047394;28;20094;-50
2021/03/22 05:58:36;;;;;;;0.38;0.38;;;;;;;1.69;75.07;92035.25;5028917;28;20056;-53
2021/03/22 06:01:23;;;;;;;0.73;0.73;;;;;;;1.80;75.30;92035.75;5007690;28;20045;-46
2021/03/22 06:03:54;;;;;;;0.30;0.30;;;;;;;1.86;74.94;92039.09;5029211;28;20029;-45
2021/03/22 06:06:30;;;;;;;0.30;0.30;;;;;;;2.03;74.52;92033.28;5027842;28;20524;-46
2021/03/22 06:09:27;;;;;;;1.55;1.45;;;;;;;2.05;74.06;92028.78;5043508;28;20085;-48
2021/03/22 06:12:00;;;;;;;0.30;0.30;;;;;;;2.21;73.68;92038.56;5034931;28;20039;-46
2021/03/22 06:14:43;;;;;;;0.20;0.20;;;;;;;2.32;73.33;92042.31;5036524;28;20045;-43
2021/03/22 06:17:31;;;;;;;1.00;0.80;;;;;;;2.26;72.01;92024.09;5027838;28;20036;-56
2021/03/22 06:19:59;;;;;;;0.40;0.40;;;;;;;2.28;72.21;92023.56;5048776;28;20034;-48
2021/03/22 06:22:31;;;;;;;1.87;1.43;;;;;;;2.29;71.91;92027.75;5030550;28;20040;-48
2021/03/22 06:25:12;;;;;;;0.40;0.40;;;;;;;2.16;70.79;92028.56;5037275;28;20568;-51
2021/03/22 06:27:37;;;;;;;1.35;1.25;;;;;;;2.08;71.12;92029.72;5056078;28;20066;-48
2021/03/22 06:30:03;;;;;;;0.38;0.38;;;;;;;1.99;70.61;92032.91;5035065;28;20104;-47
2021/03/22 06:32:45;;;;;;;3.13;2.90;;;;;;;1.91;70.93;92027.34;5035863;28;20032;-45
2021/03/22 06:35:22;;;;;;;1.30;1.30;;;;;;;1.92;71.92;92023.38;5034495;28;20029;-45
2021/03/22 06:37:47;;;;;;;0.28;0.28;;;;;;;2.10;71.57;92038.81;5047326;28;20060;-47
2021/03/22 06:40:31;;;;;;;0.40;0.40;;;;;;;1.97;70.67;92025.22;5046732;28;20060;-47
2021/03/22 06:43:20;;;;;;;3.30;3.10;;;;;;;2.08;70.57;92041.31;5036896;28;20048;-47
2021/03/22 06:45:52;;;;;;;7.63;1.42;;;;;;;2.18;70.42;92050.53;5037802;28;20544;-48
2021/03/22 06:48:23;;;;;;;0.52;0.52;;;;;;;2.18;70.14;92055.97;5032354;28;20057;-46
2021/03/22 06:51:11;;;;;;;1.40;1.30;;;;;;;2.33;71.33;92058.13;5029158;28;20060;-48
2021/03/22 06:53:42;;;;;;;1.13;0.85;;;;;;;2.39;70.02;92038.91;5029845;28;20191;-49
2021/03/22 06:56:22;;;;;;;0.57;0.57;;;;;;;2.58;69.58;92034.75;5033648;28;20033;-48
2021/03/22 06:58:49;;;;;;;1.60;1.52;;;;;;;2.65;68.81;92044.25;5036121;28;20041;-48
2021/03/22 07:01:29;;;;;;;0.55;0.55;;;;;;;2.65;68.80;92038.78;5035412;28;20033;-48
2021/03/22 07:04:24;;;;;;;0.85;0.85;;;;;;;2.72;68.37;92025.25;5035118;28;20029;-46
2021/03/22 07:07:20;;;;;;;1.50;1.13;;;;;;;2.94;67.23;92024.72;5029719;28;20036;-47
2021/03/22 07:09:53;;;;;;;0.93;0.93;;;;;;;3.35;66.71;92029.34;5035991;28;20106;-48
2021/03/22 07:12:30;;;;;;;0.30;0.30;;;;;;;3.38;65.33;92036.44;5035861;28;20021;-47
2021/03/22 07:15:25;;;;;;;0.52;0.52;;;;;;;3.55;65.44;92030.53;5035249;28;20033;-48
2021/03/22 07:18:25;;;;;;;0.57;0.57;;;;;;;3.88;64.16;92037.78;5026392;28;20040;-53
2021/03/22 07:20:54;;;;;;;3.47;1.67;;;;;;;3.84;63.71;92029.94;5029229;28;20041;-50
2021/03/22 07:23:22;;;;;;;1.55;1.45;;;;;;;4.11;63.71;92024.97;5026233;28;20068;-48
2021/03/22 07:25:51;;;;;;;1.15;1.15;;;;;;;4.40;62.77;92041.97;5034004;28;20025;-54
2021/03/22 07:28:17;;;;;;;;;;;;;;;4.45;62.51;92039.06;5046669;28;20468;-53
2021/03/22 07:30:46;;;;;;;1.75;1.65;;;;;;;4.30;62.95;92035.56;5041030;28;19917;-51
2021/03/22 07:33:43;;;;;;;3.83;2.35;;;;;;;4.17;62.27;92038.44;5041391;28;20036;-53
2021/03/22 07:36:36;;;;;;;1.17;1.17;;;;;;;3.93;63.35;92036.16;5033730;28;20069;-53
2021/03/22 07:39:10;;;;;;;0.65;0.65;;;;;;;3.80;63.47;92042.50;5040754;28;20029;-49
2021/03/22 07:42:01;;;;;;;0.65;0.65;;;;;;;3.65;63.77;92048.59;5034297;28;20017;-47
2021/03/22 07:44:49;;;;;;;0.30;0.30;;;;;;;3.80;63.93;92039.75;5043177;28;20021;-50
2021/03/22 07:47:33;;;;;;;0.50;0.50;;;;;;;4.11;63.84;92049.53;5036137;28;20411;-53
2021/03/22 07:50:26;;;;;;;0.65;0.65;;;;;;;4.10;63.08;92050.81;5034626;28;20409;-48
2021/03/22 07:53:12;;;;;;;0.43;0.43;;;;;;;4.15;63.18;92046.44;5036022;28;20025;-51
2021/03/22 07:56:02;;;;;;;0.35;0.35;;;;;;;4.34;63.37;92050.34;5038511;28;20520;-46
2021/03/22 07:58:46;;;;;;;0.30;0.30;;;;;;;4.20;63.13;92051.75;5034588;28;20041;-48
2021/03/22 08:01:28;;;;;;;1.70;0.85;;;;;;;4.16;63.75;92053.38;5035968;28;20108;-48
2021/03/22 08:04:20;;;;;;;0.57;0.40;;;;;;;3.95;63.49;92050.75;5034934;28;20029;-50
2021/03/22 08:06:56;;;;;;;0.30;0.30;;;;;;;3.72;63.70;92056.13;5027903;28;20037;-49
2021/03/22 08:09:34;;;;;;;0.28;0.28;;;;;;;3.53;64.24;92055.63;5024126;28;20083;-46
2021/03/22 08:12:04;;;;;;;0.30;0.30;;;;;;;3.22;64.68;92045.06;5025416;28;20118;-51
2021/03/22 08:14:34;;;;;;;0.35;0.35;;;;;;;3.17;65.73;92048.66;5025303;28;20541;-47
2021/03/22 08:17:09;;;;;;;0.20;0.20;;;;;;;2.93;65.78;92055.19;5041114;28;20040;-48
2021/03/22 08:19:42;;;;;;;0.20;0.20;;;;;;;2.92;66.01;92046.28;5044710;28;20106;-50
2021/03/22 08:22:23;;;;;;;0.20;0.20;;;;;;;2.62;65.79;92054.22;5040752;28;20037;-48
2021/03/22 08:25:11;;;;;;;0.20;0.20;;;;;;;2.56;65.94;92052.88;5033944;28;20029;-45
2021/03/22 08:27:40;;;;;;;0.20;0.20;;;;;;;2.29;67.21;92042.13;5037077;28;20032;-46
2021/03/22 08:30:17;;;;;;;0.20;0.20;;;;;;;2.63;67.33;92068.56;5043432;28;20501;-48
2021/03/22 08:32:51;;;;;;;1.50;1.40;;;;;;;2.72;66.20;92062.66;5044934;28;20033;-46
2021/03/22 08:35:34;;;;;;;0.47;0.47;;;;;;;2.67;66.31;92066.97;5040403;28;20036;-47
2021/03/22 08:38:02;;;;;;;0.20;0.20;;;;;;;2.60;67.12;92069.66;5037685;28;20068;-46
2021/03/22 08:40:50;;;;;;;0.85;0.85;;;;;;;2.62;67.14;92076.00;5034036;28;20044;-46
2021/03/22 08:43:42;;;;;;;0.30;0.30;;;;;;;2.72;68.21;92074.31;5035193;28;20097;-48
2021/03/22 08:46:27;;;;;;;0.30;0.30;;;;;;;2.76;68.08;92071.97;5046996;28;20489;-46
2021/03/22 08:48:53;;;;;;;3.20;0.52;;;;;;;2.83;67.96;92065.88;5040966;28;20116;-46
2021/03/22 08:51:33;;;;;;;0.30;0.30;;;;;;;3.06;67.80;92053.13;5036097;28;20529;-46
2021/03/22 08:54:00;;;;;;;0.30;0.30;;;;;;;3.28;66.95;92057.28;5037126;28;20021;-45
2021/03/22 08:56:37;;;;;;;0.50;0.50;;;;;;;3.76;65.85;92067.41;5036518;28;20043;-49
2021/03/22 08:59:08;;;;;;;0.20;0.20;;;;;;;4.00;63.74;92046.41;5037288;28;20057;-46
2021/03/22 09:01:36;;;;;;;0.30;0.30;;;;;;;4.43;62.61;92049.81;5036464;28;20033;-44
2021/03/22 09:04:28;;;;;;;0.20;0.20;;;;;;;4.61;61.94;92031.63;5033978;28;20446;-46
2021/03/22 09:06:59;;;;;;;0.30;0.30;;;;;;;4.78;61.43;92029.09;5042856;28;20808;-48
2021/03/22 09:09:30;;;;;;;0.25;0.25;;;;;;;4.74;60.35;92031.47;5042148;28;20595;-46
2021/03/22 09:11:58;;;;;;;0.52;0.52;;;;;;;4.95;59.93;92034.03;5040151;28;20044;-46
2021/03/22 09:14:33;;;;;;;0.30;0.30;;;;;;;4.92;59.38;92026.91;5041944;28;20029;-49
2021/03/22 09:17:01;;;;;;;0.22;0.22;;;;;;;5.00;59.29;92035.88;5042197;28;20036;-46
2021/03/22 09:19:31;;;;;;;0.20;0.20;;;;;;;5.10;59.76;92028.56;5043038;28;20052;-47
2021/03/22 09:21:59;;;;;;;0.57;0.57;;;;;;;5.11;58.73;92035.50;5037597;28;20032;-52
2021/03/22 09:24:43;;;;;;;0.40;0.40;;;;;;;5.15;58.40;92033.13;5027588;28;20170;-45
2021/03/22 09:29:46;;;;;;;0.63;0.63;;;;;;;5.23;57.32;92023.63;5038540;28;20041;-45
2021/03/22 09:35:00;;;;;;;0.20;0.20;;;;;;;5.39;56.54;92029.81;5028704;28;20513;-50
2021/03/22 09:37:51;;;;;;;0.75;0.75;;;;;;;4.81;57.09;92030.72;5036604;28;20077;-48
2021/03/22 09:40:22;;;;;;;0.95;0.95;;;;;;;4.63;57.15;92027.06;5039854;28;20028;-48
2021/03/22 09:43:07;;;;;;;0.52;0.52;;;;;;;4.59;58.06;92031.47;5036133;28;20028;-50
2021/03/22 09:45:33;;;;;;;1.35;1.25;;;;;;;4.85;58.38;92033.13;5045962;28;20033;-47
2021/03/22 09:48:17;;;;;;;1.35;0.50;;;;;;;4.65;58.52;92036.75;5046333;28;20458;-46
2021/03/22 09:50:44;;;;;;;0.85;0.85;;;;;;;4.64;58.14;92036.00;5046636;28;20221;-52
2021/03/22 09:53:22;;;;;;;0.30;0.25;;;;;;;4.72;57.11;92027.81;5036070;28;20033;-48
2021/03/22 09:55:50;;;;;;;0.35;0.35;;;;;;;4.59;58.34;92034.19;5028088;28;20034;-50
2021/03/22 09:58:35;;;;;;;0.20;0.20;;;;;;;4.85;58.43;92033.13;5027903;28;20062;-47
2021/03/22 10:01:03;;;;;;;0.20;0.20;;;;;;;4.98;57.78;92030.22;5029204;28;20049;-52
2021/03/22 10:03:32;;;;;;;0.28;0.28;;;;;;;5.34;56.44;92009.56;5026821;28;20094;-50
2021/03/22 10:06:03;;;;;;;0.40;0.40;;;;;;;5.41;56.56;91997.16;5035953;28;20524;-50
2021/03/22 10:08:37;;;;;;;0.20;0.20;;;;;;;5.89;56.06;91990.47;5037519;28;20393;-48
2021/03/22 10:11:22;;;;;;;0.20;0.20;;;;;;;7.06;53.05;91983.91;5036148;28;20041;-52
2021/03/22 10:13:48;;;;;;;0.20;0.20;;;;;;;7.37;49.91;91996.09;5038867;28;20037;-49
2021/03/22 10:16:21;;;;;;;0.20;0.20;;;;;;;7.57;49.95;92000.47;5034274;28;20413;-49
2021/03/22 10:19:14;;;;;;;2.60;1.67;;;;;;;7.68;49.55;92026.00;5026361;28;20021;-60
2021/03/22 10:21:54;;;;;;;0.55;0.55;;;;;;;7.64;48.98;92049.09;5027935;28;20029;-59
2021/03/22 10:24:49;;;;;;;0.90;0.90;;;;;;;7.30;49.48;92049.03;5026592;28;20029;-55
2021/03/22 10:27:33;;;;;;;0.25;0.25;;;;;;;7.73;48.60;92017.53;5034495;28;20045;-55
2021/03/22 10:30:10;;;;;;;0.30;0.30;;;;;;;7.48;48.56;92000.38;5026153;28;20032;-57
2021/03/22 10:32:36;;;;;;;0.20;0.20;;;;;;;7.16;50.04;91987.50;5025410;28;20041;-57
2021/03/22 10:35:12;;;;;;;0.20;0.20;;;;;;;7.07;50.07;92010.06;5028229;28;20082;-59
2021/03/22 10:37:44;;;;;;;0.20;0.20;;;;;;;6.85;50.43;92030.16;5044947;28;20044;-58
2021/03/22 10:40:22;;;;;;;1.75;0.65;;;;;;;6.83;51.57;92036.22;5046153;28;20024;-61
2021/03/22 10:42:49;;;;;;;0.40;0.40;;;;;;;6.67;51.95;92034.13;5046790;28;20028;-61
2021/03/22 10:45:28;;;;;;;0.20;0.20;;;;;;;6.81;50.98;92038.06;5047345;28;20037;-56
2021/03/22 10:47:56;;;;;;;0.30;0.30;;;;;;;6.67;51.14;92007.41;5039704;28;20040;-49
2021/03/22 10:50:36;;;;;;;1.48;1.38;;;;;;;6.67;52.79;92021.13;5029486;28;20078;-52
2021/03/22 10:53:10;;;;;;;0.20;0.20;;;;;;;6.54;52.75;92026.16;5046243;28;20426;-51
2021/03/22 10:55:37;;;;;;;0.30;0.30;;;;;;;6.61;53.37;92028.84;5047437;28;20090;-55
2021/03/22 10:58:05;;;;;;;0.30;0.30;;;;;;;6.89;52.03;92027.75;5046264;28;20045;-55
2021/03/22 11:00:35;;;;;;;0.38;0.38;;;;;;;7.06;49.95;92032.59;5047201;28;20104;-52
2021/03/22 11:03:04;;;;;;;0.25;0.25;;;;;;;6.95;50.61;92025.53;5046242;28;20116;-54
2021/03/22 11:05:41;;;;;;;0.30;0.30;;;;;;;7.21;51.01;92035.22;5045782;28;20550;-57
2021/03/22 11:08:20;;;;;;;0.30;0.30;;;;;;;6.84;50.69;92040.41;5038602;28;20078;-48
2021/03/22 11:10:46;;;;;;;0.20;0.20;;;;;;;6.79;52.62;92046.84;5044773;28;20032;-54
2021/03/22 11:13:15;;;;;;;0.60;0.60;;;;;;;6.63;52.42;92036.50;5047001;28;20052;-47
2021/03/22 11:15:41;;;;;;;0.30;0.30;;;;;;;6.59;52.79;92017.72;5039820;28;20039;-48
2021/03/22 11:18:14;;;;;;;0.20;0.20;;;;;;;6.30;52.44;92021.34;5035348;28;20432;-46
2021/03/22 11:20:45;;;;;;;0.30;0.30;;;;;;;5.98;53.07;92020.00;5035966;28;20464;-47
2021/03/22 11:23:25;;;;;;;0.30;0.30;;;;;;;5.76;53.50;92009.81;5035099;28;20127;-45
2021/03/22 11:25:52;;;;;;;0.20;0.20;;;;;;;5.81;54.80;92014.38;5037102;28;20072;-47
2021/03/22 11:28:18;;;;;;;0.22;0.22;;;;;;;5.88;55.77;92023.88;5035608;28;20506;-45
2021/03/22 11:30:49;;;;;;;0.22;0.22;;;;;;;6.13;53.29;92014.47;5027911;28;20064;-47
2021/03/22 11:33:22;;;;;;;0.28;0.28;;;;;;;6.03;53.34;92032.06;5046682;28;20492;-45
2021/03/22 11:36:12;;;;;;;0.30;0.30;;;;;;;5.79;54.35;92027.16;5046492;28;20036;-45
2021/03/22 11:38:51;;;;;;;0.20;0.20;;;;;;;5.59;54.69;92039.09;5045520;28;20029;-49
2021/03/22 11:41:36;;;;;;;0.20;0.20;;;;;;;5.42;55.09;92034.19;5045797;28;20450;-44
2021/03/22 11:44:01;;;;;;;0.20;0.20;;;;;;;5.22;55.32;92043.31;5047022;28;20146;-46
2021/03/22 11:46:27;;;;;;;0.30;0.30;;;;;;;4.97;55.53;92039.69;5039775;28;20533;-46
2021/03/22 11:48:52;;;;;;;0.25;0.25;;;;;;;4.87;56.24;92036.78;5039909;28;20029;-43
2021/03/22 11:51:17;;;;;;;0.20;0.20;;;;;;;4.82;55.58;92036.94;5041020;28;20029;-46
2021/03/22 11:54:04;;;;;;;0.43;0.30;;;;;;;4.67;56.30;92051.31;5045292;28;20037;-44
2021/03/22 11:56:32;;;;;;;0.25;0.25;;;;;;;4.12;57.50;92053.72;5046430;28;20033;-43
2021/03/22 11:59:24;;;;;;;0.50;0.50;;;;;;;3.99;59.58;92047.66;5046187;28;20045;-43
2021/03/22 12:02:12;;;;;;;0.20;0.20;;;;;;;3.92;58.90;92051.81;5045055;28;20029;-44
2021/03/22 12:04:39;;;;;;;0.20;0.20;;;;;;;3.64;59.82;92051.84;5046646;28;20035;-43
2021/03/22 12:07:08;;;;;;;0.20;0.20;;;;;;;3.56;60.09;92042.91;5045056;28;20466;-44
2021/03/22 12:09:36;;;;;;;0.20;0.20;;;;;;;3.24;60.46;92029.63;5046355;28;20124;-44
2021/03/22 12:12:09;;;;;;;0.20;0.20;;;;;;;3.39;60.91;92046.09;5032442;28;20039;-45
2021/03/22 12:14:35;;;;;;;0.20;0.20;;;;;;;3.45;60.89;92054.13;5029073;28;20033;-44
2021/03/22 12:17:03;;;;;;;0.20;0.20;;;;;;;3.46;60.31;92048.13;5029851;28;20554;-43
2021/03/22 12:19:36;;;;;;;0.20;0.20;;;;;;;3.42;60.29;92049.75;5030096;28;20025;-44
2021/03/22 12:22:03;;;;;;;0.20;0.20;;;;;;;3.58;60.35;92054.75;5029812;28;20063;-43
2021/03/22 12:24:28;;;;;;;0.22;0.22;;;;;;;3.74;59.30;92048.13;5029546;28;20069;-45
2021/03/22 12:26:54;;;;;;;0.20;0.20;;;;;;;3.84;60.35;92051.78;5029622;28;20068;-47
2021/03/22 12:29:19;;;;;;;0.10;0.10;;;;;;;4.07;59.11;92046.41;5042421;28;20032;-44